sensor_id;sensor_type;location;lat;lon;timestamp;pressure;altitude;pressure_sealevel;temperature;humidity
22862;BME280;11598;50.652;6.172;2024-02-04T00:05:28;97295.03;;;6.38;100.00
22862;BME280;11598;50.652;6.172;2024-02-04T00:15:28;97289.03;;;6.38;100.00
22862;BME280;11598;50.652;6.172;2024-02-04T00:25:29;97298.59;;;6.35;100.00
22862;BME280;11598;50.652;6.172;2024-02-04T00:35:29;97295.09;;;6.37;100.00
22862;BME280;11598;50.652;6.172;2024-02-04T00:45:30;97287.44;;;6.35;100.00
22862;BME280;11598;50.652;6.172;2024-02-04T00:55:30;97286.50;;;6.36;100.00
22862;BME280;11598;50.652;6.172;2024-02-04T01:05:31;97281.41;;;6.34;100.00
22862;BME280;11598;50.652;6.172;2024-02-04T01:15:31;97286.50;;;6.36;100.00
22862;BME280;11598;50.652;6.172;2024-02-04T01:25:31;97286.38;;;6.39;100.00
22862;BME280;11598;50.652;6.172;2024-02-04T01:35:32;97296.63;;;6.41;100.00
22862;BME280;11598;50.652;6.172;2024-02-04T01:45:32;97284.41;;;6.44;100.00
22862;BME280;11598;50.652;6.172;2024-02-04T01:55:33;97279.13;;;6.47;100.00
22862;BME280;11598;50.652;6.172;2024-02-04T02:05:33;97268.72;;;6.49;100.00
22862;BME280;11598;50.652;6.172;2024-02-04T02:15:36;97250.44;;;6.53;100.00
22862;BME280;11598;50.652;6.172;2024-02-04T02:25:40;97264.06;;;6.57;100.00
22862;BME280;11598;50.652;6.172;2024-02-04T02:35:41;97269.06;;;6.60;100.00
22862;BME280;11598;50.652;6.172;2024-02-04T02:45:42;97273.19;;;6.64;100.00
22862;BME280;11598;50.652;6.172;2024-02-04T02:55:43;97263.56;;;6.68;100.00
22862;BME280;11598;50.652;6.172;2024-02-04T03:05:46;97262.66;;;6.69;100.00
22862;BME280;11598;50.652;6.172;2024-02-04T03:15:46;97250.53;;;6.71;100.00
22862;BME280;11598;50.652;6.172;2024-02-04T03:25:47;97259.09;;;6.71;100.00
22862;BME280;11598;50.652;6.172;2024-02-04T03:35:47;97265.88;;;6.74;100.00
22862;BME280;11598;50.652;6.172;2024-02-04T03:45:48;97257.22;;;6.75;100.00
22862;BME280;11598;50.652;6.172;2024-02-04T03:55:49;97277.75;;;6.78;100.00
22862;BME280;11598;50.652;6.172;2024-02-04T04:05:49;97243.25;;;6.79;100.00
22862;BME280;11598;50.652;6.172;2024-02-04T04:15:50;97263.00;;;6.80;100.00
22862;BME280;11598;50.652;6.172;2024-02-04T04:25:51;97254.41;;;6.80;100.00
22862;BME280;11598;50.652;6.172;2024-02-04T04:35:51;97257.06;;;6.78;100.00
22862;BME280;11598;50.652;6.172;2024-02-04T04:45:51;97264.00;;;6.77;100.00
22862;BME280;11598;50.652;6.172;2024-02-04T04:55:52;97253.72;;;6.76;100.00
22862;BME280;11598;50.652;6.172;2024-02-04T05:05:52;97265.88;;;6.74;100.00
22862;BME280;11598;50.652;6.172;2024-02-04T05:15:53;97257.34;;;6.72;100.00
22862;BME280;11598;50.652;6.172;2024-02-04T05:25:53;97241.09;;;6.70;100.00
22862;BME280;11598;50.652;6.172;2024-02-04T05:35:53;97207.66;;;6.67;100.00
22862;BME280;11598;50.652;6.172;2024-02-04T05:45:54;97221.56;;;6.64;100.00
22862;BME280;11598;50.652;6.172;2024-02-04T05:55:55;97226.72;;;6.64;100.00
22862;BME280;11598;50.652;6.172;2024-02-04T06:05:55;97209.63;;;6.62;100.00
22862;BME280;11598;50.652;6.172;2024-02-04T06:15:55;97219.97;;;6.62;100.00
22862;BME280;11598;50.652;6.172;2024-02-04T06:25:56;97214.03;;;6.60;100.00
22862;BME280;11598;50.652;6.172;2024-02-04T06:35:56;97216.59;;;6.60;100.00
22862;BME280;11598;50.652;6.172;2024-02-04T06:45:57;97199.53;;;6.57;100.00
22862;BME280;11598;50.652;6.172;2024-02-04T06:55:57;97202.09;;;6.57;100.00
22862;BME280;11598;50.652;6.172;2024-02-04T07:05:58;97200.34;;;6.57;100.00
22862;BME280;11598;50.652;6.172;2024-02-04T07:15:58;97209.00;;;6.56;100.00
22862;BME280;11598;50.652;6.172;2024-02-04T07:25:58;97201.94;;;6.60;100.00
22862;BME280;11598;50.652;6.172;2024-02-04T07:35:59;97201.94;;;6.60;100.00
22862;BME280;11598;50.652;6.172;2024-02-04T07:45:59;97207.00;;;6.63;100.00
22862;BME280;11598;50.652;6.172;2024-02-04T07:55:59;97201.53;;;6.69;100.00
22862;BME280;11598;50.652;6.172;2024-02-04T08:06:01;97219.53;;;6.71;100.00
22862;BME280;11598;50.652;6.172;2024-02-04T08:16:02;97194.47;;;6.73;100.00
22862;BME280;11598;50.652;6.172;2024-02-04T08:26:03;97202.13;;;6.74;100.00
22862;BME280;11598;50.652;6.172;2024-02-04T08:36:04;97212.63;;;6.71;100.00
22862;BME280;11598;50.652;6.172;2024-02-04T08:46:06;97210.81;;;6.73;100.00
22862;BME280;11598;50.652;6.172;2024-02-04T08:56:07;97194.31;;;6.76;100.00
22862;BME280;11598;50.652;6.172;2024-02-04T09:06:07;97201.03;;;6.80;100.00
22862;BME280;11598;50.652;6.172;2024-02-04T09:16:08;97197.59;;;6.80;100.00
22862;BME280;11598;50.652;6.172;2024-02-04T09:26:08;97210.28;;;6.84;100.00
22862;BME280;11598;50.652;6.172;2024-02-04T09:36:09;97234.19;;;6.89;100.00
22862;BME280;11598;50.652;6.172;2024-02-04T09:46:09;97224.56;;;6.91;100.00
22862;BME280;11598;50.652;6.172;2024-02-04T09:56:12;97231.16;;;6.98;100.00
22862;BME280;11598;50.652;6.172;2024-02-04T10:06:12;97224.78;;;7.06;100.00
22862;BME280;11598;50.652;6.172;2024-02-04T10:16:16;97202.91;;;7.13;100.00
22862;BME280;11598;50.652;6.172;2024-02-04T10:26:17;97202.13;;;7.11;100.00
22862;BME280;11598;50.652;6.172;2024-02-04T10:36:20;97214.06;;;7.13;100.00
22862;BME280;11598;50.652;6.172;2024-02-04T10:46:22;97220.22;;;7.11;100.00
22862;BME280;11598;50.652;6.172;2024-02-04T10:56:37;97213.09;;;7.16;100.00
22862;BME280;11598;50.652;6.172;2024-02-04T11:06:40;97219.31;;;7.12;100.00
22862;BME280;11598;50.652;6.172;2024-02-04T11:26:47;97202.59;;;7.19;100.00
22862;BME280;11598;50.652;6.172;2024-02-04T11:36:48;97199.72;;;7.25;100.00
22862;BME280;11598;50.652;6.172;2024-02-04T11:46:49;97169.25;;;7.32;100.00
22862;BME280;11598;50.652;6.172;2024-02-04T11:56:50;97149.69;;;7.26;100.00
22862;BME280;11598;50.652;6.172;2024-02-04T12:06:54;97151.50;;;7.24;100.00
22862;BME280;11598;50.652;6.172;2024-02-04T12:16:56;97147.19;;;7.25;100.00
22862;BME280;11598;50.652;6.172;2024-02-04T12:26:57;97141.31;;;7.21;100.00
22862;BME280;11598;50.652;6.172;2024-02-04T12:37:01;97133.50;;;7.23;100.00
22862;BME280;11598;50.652;6.172;2024-02-04T12:47:01;97147.25;;;7.23;100.00
22862;BME280;11598;50.652;6.172;2024-02-04T12:57:02;97128.56;;;7.18;100.00
22862;BME280;11598;50.652;6.172;2024-02-04T13:07:13;97117.19;;;7.22;100.00
22862;BME280;11598;50.652;6.172;2024-02-04T13:17:14;97115.19;;;7.27;100.00
22862;BME280;11598;50.652;6.172;2024-02-04T13:27:15;97118.31;;;7.34;100.00
22862;BME280;11598;50.652;6.172;2024-02-04T13:37:17;97123.38;;;7.35;100.00
22862;BME280;11598;50.652;6.172;2024-02-04T13:47:18;97112.28;;;7.33;100.00
22862;BME280;11598;50.652;6.172;2024-02-04T13:57:18;97095.28;;;7.29;100.00
22862;BME280;11598;50.652;6.172;2024-02-04T14:07:18;97115.09;;;7.29;100.00
22862;BME280;11598;50.652;6.172;2024-02-04T14:17:19;97115.84;;;7.31;100.00
22862;BME280;11598;50.652;6.172;2024-02-04T14:27:20;97111.38;;;7.34;100.00
22862;BME280;11598;50.652;6.172;2024-02-04T14:37:20;97116.44;;;7.36;100.00
22862;BME280;11598;50.652;6.172;2024-02-04T14:47:21;97117.38;;;7.35;100.00
22862;BME280;11598;50.652;6.172;2024-02-04T14:57:21;97130.31;;;7.35;100.00
22862;BME280;11598;50.652;6.172;2024-02-04T15:07:22;97109.78;;;7.32;100.00
22862;BME280;11598;50.652;6.172;2024-02-04T15:17:22;97105.50;;;7.31;100.00
22862;BME280;11598;50.652;6.172;2024-02-04T15:27:24;97099.53;;;7.30;100.00
22862;BME280;11598;50.652;6.172;2024-02-04T15:37:25;97103.03;;;7.29;100.00
22862;BME280;11598;50.652;6.172;2024-02-04T15:47:27;97096.28;;;7.27;100.00
22862;BME280;11598;50.652;6.172;2024-02-04T15:57:33;97098.16;;;7.23;100.00
22862;BME280;11598;50.652;6.172;2024-02-04T16:07:35;97098.38;;;7.18;100.00
22862;BME280;11598;50.652;6.172;2024-02-04T16:17:37;97093.44;;;7.14;100.00
22862;BME280;11598;50.652;6.172;2024-02-04T16:27:39;97095.44;;;7.09;100.00
22862;BME280;11598;50.652;6.172;2024-02-04T16:37:40;97078.41;;;7.05;100.00
22862;BME280;11598;50.652;6.172;2024-02-04T16:47:40;97071.59;;;7.04;100.00
22862;BME280;11598;50.652;6.172;2024-02-04T16:57:40;97046.66;;;7.03;100.00
22862;BME280;11598;50.652;6.172;2024-02-04T17:07:44;97055.25;;;7.03;100.00
22862;BME280;11598;50.652;6.172;2024-02-04T17:17:53;97047.63;;;7.00;100.00
22862;BME280;11598;50.652;6.172;2024-02-04T17:27:59;97048.56;;;6.99;100.00
22862;BME280;11598;50.652;6.172;2024-02-04T17:38:04;97050.38;;;6.97;100.00
22862;BME280;11598;50.652;6.172;2024-02-04T17:48:07;97056.38;;;6.97;100.00
22862;BME280;11598;50.652;6.172;2024-02-04T17:58:08;97060.66;;;6.98;100.00
22862;BME280;11598;50.652;6.172;2024-02-04T18:08:09;97046.22;;;6.94;100.00
22862;BME280;11598;50.652;6.172;2024-02-04T18:18:10;97048.19;;;6.89;100.00
22862;BME280;11598;50.652;6.172;2024-02-04T18:28:10;97038.16;;;6.83;100.00
22862;BME280;11598;50.652;6.172;2024-02-04T18:38:11;97043.50;;;6.80;100.00
22862;BME280;11598;50.652;6.172;2024-02-04T18:48:12;97036.78;;;6.76;100.00
22862;BME280;11598;50.652;6.172;2024-02-04T18:58:13;97024.81;;;6.75;100.00
22862;BME280;11598;50.652;6.172;2024-02-04T19:08:13;97006.81;;;6.73;100.00
22862;BME280;11598;50.652;6.172;2024-02-04T19:18:13;97026.53;;;6.74;100.00
22862;BME280;11598;50.652;6.172;2024-02-04T19:28:14;97054.88;;;6.76;100.00
22862;BME280;11598;50.652;6.172;2024-02-04T19:38:14;97047.97;;;6.76;100.00
22862;BME280;11598;50.652;6.172;2024-02-04T19:48:15;97062.63;;;6.76;100.00
22862;BME280;11598;50.652;6.172;2024-02-04T19:58:15;97051.47;;;6.75;100.00
22862;BME280;11598;50.652;6.172;2024-02-04T20:08:15;97056.63;;;6.75;100.00
22862;BME280;11598;50.652;6.172;2024-02-04T20:18:16;97057.53;;;6.74;100.00
22862;BME280;11598;50.652;6.172;2024-02-04T20:28:16;97034.38;;;6.73;100.00
22862;BME280;11598;50.652;6.172;2024-02-04T20:38:17;97042.94;;;6.73;100.00
22862;BME280;11598;50.652;6.172;2024-02-04T20:48:18;97032.63;;;6.73;100.00
22862;BME280;11598;50.652;6.172;2024-02-04T20:58:19;97027.53;;;6.72;100.00
22862;BME280;11598;50.652;6.172;2024-02-04T21:08:19;97026.75;;;6.70;100.00
22862;BME280;11598;50.652;6.172;2024-02-04T21:18:20;97005.28;;;6.69;100.00
22862;BME280;11598;50.652;6.172;2024-02-04T21:28:21;97017.34;;;6.69;100.00
22862;BME280;11598;50.652;6.172;2024-02-04T21:38:23;97019.19;;;6.67;100.00
22862;BME280;11598;50.652;6.172;2024-02-04T21:48:23;97003.75;;;6.65;100.00
22862;BME280;11598;50.652;6.172;2024-02-04T21:58:24;97026.09;;;6.66;100.00
22862;BME280;11598;50.652;6.172;2024-02-04T22:08:25;97017.53;;;6.66;100.00
22862;BME280;11598;50.652;6.172;2024-02-04T22:18:25;97018.25;;;6.68;100.00
22862;BME280;11598;50.652;6.172;2024-02-04T22:28:26;97026.00;;;6.68;100.00
22862;BME280;11598;50.652;6.172;2024-02-04T22:38:26;97031.16;;;6.68;100.00
22862;BME280;11598;50.652;6.172;2024-02-04T22:48:26;97032.16;;;6.65;100.00
22862;BME280;11598;50.652;6.172;2024-02-04T22:58:27;97045.16;;;6.64;100.00
22862;BME280;11598;50.652;6.172;2024-02-04T23:08:28;97051.09;;;6.66;100.00
22862;BME280;11598;50.652;6.172;2024-02-04T23:18:28;97034.72;;;6.65;100.00
22862;BME280;11598;50.652;6.172;2024-02-04T23:28:29;97047.59;;;6.67;100.00
22862;BME280;11598;50.652;6.172;2024-02-04T23:38:29;97067.31;;;6.68;100.00
22862;BME280;11598;50.652;6.172;2024-02-04T23:48:29;97057.75;;;6.70;100.00
22862;BME280;11598;50.652;6.172;2024-02-04T23:58:30;97080.22;;;6.68;100.00
